sensor_id;sensor_type;location;lat;lon;timestamp;P1;durP1;ratioP1;P2;durP2;ratioP2
23800;SDS011;12081;48.614;10.226;2023-04-03T00:01:52;3.53;;;3.10;;
23800;SDS011;12081;48.614;10.226;2023-04-03T00:04:36;3.73;;;2.90;;
23800;SDS011;12081;48.614;10.226;2023-04-03T00:07:21;3.57;;;2.60;;
23800;SDS011;12081;48.614;10.226;2023-04-03T00:10:05;3.60;;;2.70;;
23800;SDS011;12081;48.614;10.226;2023-04-03T00:12:50;3.07;;;2.67;;
23800;SDS011;12081;48.614;10.226;2023-04-03T00:15:35;4.47;;;3.20;;
23800;SDS011;12081;48.614;10.226;2023-04-03T00:18:20;4.47;;;2.50;;
23800;SDS011;12081;48.614;10.226;2023-04-03T00:21:05;3.40;;;2.23;;
23800;SDS011;12081;48.614;10.226;2023-04-03T00:23:50;3.67;;;2.40;;
23800;SDS011;12081;48.614;10.226;2023-04-03T00:26:34;2.87;;;2.50;;
23800;SDS011;12081;48.614;10.226;2023-04-03T00:29:19;2.67;;;2.37;;
23800;SDS011;12081;48.614;10.226;2023-04-03T00:32:04;2.50;;;2.30;;
23800;SDS011;12081;48.614;10.226;2023-04-03T00:34:48;2.50;;;2.30;;
23800;SDS011;12081;48.614;10.226;2023-04-03T00:37:33;3.27;;;2.67;;
23800;SDS011;12081;48.614;10.226;2023-04-03T00:40:18;3.57;;;2.87;;
23800;SDS011;12081;48.614;10.226;2023-04-03T00:43:15;4.33;;;3.13;;
23800;SDS011;12081;48.614;10.226;2023-04-03T00:46:04;4.37;;;3.20;;
23800;SDS011;12081;48.614;10.226;2023-04-03T00:48:49;4.00;;;3.13;;
23800;SDS011;12081;48.614;10.226;2023-04-03T00:51:33;4.63;;;2.97;;
23800;SDS011;12081;48.614;10.226;2023-04-03T00:54:19;4.07;;;3.23;;
23800;SDS011;12081;48.614;10.226;2023-04-03T00:57:04;4.50;;;3.07;;
23800;SDS011;12081;48.614;10.226;2023-04-03T00:59:51;6.00;;;3.33;;
23800;SDS011;12081;48.614;10.226;2023-04-03T01:02:39;4.37;;;3.17;;
23800;SDS011;12081;48.614;10.226;2023-04-03T01:05:24;4.70;;;3.57;;
23800;SDS011;12081;48.614;10.226;2023-04-03T01:08:09;5.23;;;3.60;;
23800;SDS011;12081;48.614;10.226;2023-04-03T01:10:54;4.93;;;3.37;;
23800;SDS011;12081;48.614;10.226;2023-04-03T01:13:38;3.60;;;3.00;;
23800;SDS011;12081;48.614;10.226;2023-04-03T01:16:23;3.93;;;3.53;;
23800;SDS011;12081;48.614;10.226;2023-04-03T01:19:10;4.33;;;3.77;;
23800;SDS011;12081;48.614;10.226;2023-04-03T01:22:02;3.87;;;2.83;;
23800;SDS011;12081;48.614;10.226;2023-04-03T01:25:01;4.63;;;3.17;;
23800;SDS011;12081;48.614;10.226;2023-04-03T01:27:46;4.23;;;3.27;;
23800;SDS011;12081;48.614;10.226;2023-04-03T01:30:32;3.37;;;2.80;;
23800;SDS011;12081;48.614;10.226;2023-04-03T01:33:19;4.03;;;2.70;;
23800;SDS011;12081;48.614;10.226;2023-04-03T01:36:04;3.80;;;2.97;;
23800;SDS011;12081;48.614;10.226;2023-04-03T01:38:50;3.17;;;2.87;;
23800;SDS011;12081;48.614;10.226;2023-04-03T01:41:34;3.73;;;2.90;;
23800;SDS011;12081;48.614;10.226;2023-04-03T01:44:19;4.10;;;3.00;;
23800;SDS011;12081;48.614;10.226;2023-04-03T01:47:05;3.50;;;2.80;;
23800;SDS011;12081;48.614;10.226;2023-04-03T01:49:50;5.07;;;3.20;;
23800;SDS011;12081;48.614;10.226;2023-04-03T01:52:35;2.73;;;2.30;;
23800;SDS011;12081;48.614;10.226;2023-04-03T01:55:19;3.60;;;3.10;;
23800;SDS011;12081;48.614;10.226;2023-04-03T01:58:04;3.63;;;3.00;;
23800;SDS011;12081;48.614;10.226;2023-04-03T02:00:48;3.70;;;2.77;;
23800;SDS011;12081;48.614;10.226;2023-04-03T02:03:33;3.60;;;3.10;;
23800;SDS011;12081;48.614;10.226;2023-04-03T02:06:17;5.20;;;2.90;;
23800;SDS011;12081;48.614;10.226;2023-04-03T02:09:02;2.77;;;2.40;;
23800;SDS011;12081;48.614;10.226;2023-04-03T02:11:47;5.00;;;2.57;;
23800;SDS011;12081;48.614;10.226;2023-04-03T02:14:32;2.50;;;1.93;;
23800;SDS011;12081;48.614;10.226;2023-04-03T02:17:16;2.87;;;1.90;;
23800;SDS011;12081;48.614;10.226;2023-04-03T02:20:01;1.67;;;1.50;;
23800;SDS011;12081;48.614;10.226;2023-04-03T02:22:46;2.53;;;1.70;;
23800;SDS011;12081;48.614;10.226;2023-04-03T02:25:31;2.60;;;1.40;;
23800;SDS011;12081;48.614;10.226;2023-04-03T02:28:15;2.30;;;1.80;;
23800;SDS011;12081;48.614;10.226;2023-04-03T02:31:00;2.50;;;2.00;;
23800;SDS011;12081;48.614;10.226;2023-04-03T02:33:45;2.00;;;1.80;;
23800;SDS011;12081;48.614;10.226;2023-04-03T02:36:29;2.23;;;2.03;;
23800;SDS011;12081;48.614;10.226;2023-04-03T02:39:14;2.73;;;2.30;;
23800;SDS011;12081;48.614;10.226;2023-04-03T02:41:59;2.47;;;1.73;;
23800;SDS011;12081;48.614;10.226;2023-04-03T02:44:43;3.23;;;2.00;;
23800;SDS011;12081;48.614;10.226;2023-04-03T02:47:28;1.97;;;1.53;;
23800;SDS011;12081;48.614;10.226;2023-04-03T02:50:13;2.43;;;1.70;;
23800;SDS011;12081;48.614;10.226;2023-04-03T02:52:57;2.40;;;2.10;;
23800;SDS011;12081;48.614;10.226;2023-04-03T02:55:40;2.00;;;1.73;;
23800;SDS011;12081;48.614;10.226;2023-04-03T02:58:24;2.97;;;2.30;;
23800;SDS011;12081;48.614;10.226;2023-04-03T03:01:09;2.30;;;2.00;;
23800;SDS011;12081;48.614;10.226;2023-04-03T03:03:54;4.57;;;2.10;;
23800;SDS011;12081;48.614;10.226;2023-04-03T03:06:38;3.80;;;2.13;;
23800;SDS011;12081;48.614;10.226;2023-04-03T03:09:22;2.70;;;1.53;;
23800;SDS011;12081;48.614;10.226;2023-04-03T03:12:06;1.63;;;1.50;;
23800;SDS011;12081;48.614;10.226;2023-04-03T03:14:50;2.53;;;2.20;;
23800;SDS011;12081;48.614;10.226;2023-04-03T03:17:34;2.10;;;1.67;;
23800;SDS011;12081;48.614;10.226;2023-04-03T03:20:19;1.93;;;1.50;;
23800;SDS011;12081;48.614;10.226;2023-04-03T03:23:04;2.03;;;1.60;;
23800;SDS011;12081;48.614;10.226;2023-04-03T03:25:49;2.83;;;1.80;;
23800;SDS011;12081;48.614;10.226;2023-04-03T03:28:38;1.97;;;1.60;;
23800;SDS011;12081;48.614;10.226;2023-04-03T03:31:24;2.70;;;1.87;;
23800;SDS011;12081;48.614;10.226;2023-04-03T04:36:12;3.93;;;1.90;;
23800;SDS011;12081;48.614;10.226;2023-04-03T04:38:58;3.30;;;1.73;;
23800;SDS011;12081;48.614;10.226;2023-04-03T04:41:43;2.07;;;1.77;;
23800;SDS011;12081;48.614;10.226;2023-04-03T04:44:28;1.30;;;0.97;;
23800;SDS011;12081;48.614;10.226;2023-04-03T05:31:20;3.40;;;2.30;;
23800;SDS011;12081;48.614;10.226;2023-04-03T05:34:04;3.07;;;2.17;;
23800;SDS011;12081;48.614;10.226;2023-04-03T05:36:49;5.07;;;2.27;;
23800;SDS011;12081;48.614;10.226;2023-04-03T05:39:33;2.97;;;1.93;;
23800;SDS011;12081;48.614;10.226;2023-04-03T05:42:17;2.37;;;2.17;;
23800;SDS011;12081;48.614;10.226;2023-04-03T05:45:01;3.67;;;2.27;;
23800;SDS011;12081;48.614;10.226;2023-04-03T05:47:46;3.50;;;2.37;;
23800;SDS011;12081;48.614;10.226;2023-04-03T05:50:30;3.50;;;2.33;;
23800;SDS011;12081;48.614;10.226;2023-04-03T05:53:17;3.93;;;2.10;;
23800;SDS011;12081;48.614;10.226;2023-04-03T05:56:08;3.33;;;2.20;;
23800;SDS011;12081;48.614;10.226;2023-04-03T05:58:52;2.97;;;2.37;;
23800;SDS011;12081;48.614;10.226;2023-04-03T06:01:36;7.10;;;2.37;;
23800;SDS011;12081;48.614;10.226;2023-04-03T06:04:21;2.37;;;2.13;;
23800;SDS011;12081;48.614;10.226;2023-04-03T06:07:05;3.33;;;2.03;;
23800;SDS011;12081;48.614;10.226;2023-04-03T06:09:50;3.70;;;2.20;;
23800;SDS011;12081;48.614;10.226;2023-04-03T06:12:35;2.97;;;2.10;;
23800;SDS011;12081;48.614;10.226;2023-04-03T06:15:19;1.93;;;1.70;;
23800;SDS011;12081;48.614;10.226;2023-04-03T06:18:03;3.43;;;1.80;;
23800;SDS011;12081;48.614;10.226;2023-04-03T06:20:47;6.17;;;2.57;;
23800;SDS011;12081;48.614;10.226;2023-04-03T06:23:31;3.70;;;2.00;;
23800;SDS011;12081;48.614;10.226;2023-04-03T06:26:16;2.67;;;2.07;;
23800;SDS011;12081;48.614;10.226;2023-04-03T06:29:00;7.83;;;2.67;;
23800;SDS011;12081;48.614;10.226;2023-04-03T06:31:46;6.17;;;1.83;;
23800;SDS011;12081;48.614;10.226;2023-04-03T06:34:30;3.87;;;2.77;;
23800;SDS011;12081;48.614;10.226;2023-04-03T06:37:15;3.10;;;2.27;;
23800;SDS011;12081;48.614;10.226;2023-04-03T06:40:04;3.70;;;2.30;;
23800;SDS011;12081;48.614;10.226;2023-04-03T06:42:49;3.93;;;1.63;;
23800;SDS011;12081;48.614;10.226;2023-04-03T06:45:33;3.77;;;2.33;;
23800;SDS011;12081;48.614;10.226;2023-04-03T06:48:17;3.90;;;2.30;;
23800;SDS011;12081;48.614;10.226;2023-04-03T06:51:01;3.10;;;1.83;;
23800;SDS011;12081;48.614;10.226;2023-04-03T06:53:45;4.13;;;2.07;;
23800;SDS011;12081;48.614;10.226;2023-04-03T06:56:30;5.20;;;1.80;;
23800;SDS011;12081;48.614;10.226;2023-04-03T06:59:15;4.03;;;1.83;;
23800;SDS011;12081;48.614;10.226;2023-04-03T07:01:59;3.03;;;1.83;;
23800;SDS011;12081;48.614;10.226;2023-04-03T07:04:43;3.83;;;2.23;;
23800;SDS011;12081;48.614;10.226;2023-04-03T07:07:28;2.93;;;1.90;;
23800;SDS011;12081;48.614;10.226;2023-04-03T07:10:11;2.77;;;1.63;;
23800;SDS011;12081;48.614;10.226;2023-04-03T07:12:55;3.67;;;2.10;;
23800;SDS011;12081;48.614;10.226;2023-04-03T07:15:40;3.57;;;2.13;;
23800;SDS011;12081;48.614;10.226;2023-04-03T07:18:24;4.60;;;1.83;;
23800;SDS011;12081;48.614;10.226;2023-04-03T07:21:09;4.97;;;2.03;;
23800;SDS011;12081;48.614;10.226;2023-04-03T07:23:53;3.17;;;2.10;;
23800;SDS011;12081;48.614;10.226;2023-04-03T07:26:38;3.60;;;1.77;;
23800;SDS011;12081;48.614;10.226;2023-04-03T07:29:22;6.83;;;1.87;;
23800;SDS011;12081;48.614;10.226;2023-04-03T07:32:07;7.13;;;2.50;;
23800;SDS011;12081;48.614;10.226;2023-04-03T07:34:51;5.27;;;1.93;;
23800;SDS011;12081;48.614;10.226;2023-04-03T07:37:35;4.77;;;1.90;;
23800;SDS011;12081;48.614;10.226;2023-04-03T07:40:20;4.67;;;2.37;;
23800;SDS011;12081;48.614;10.226;2023-04-03T07:43:04;3.47;;;1.90;;
23800;SDS011;12081;48.614;10.226;2023-04-03T07:45:49;3.33;;;1.63;;
23800;SDS011;12081;48.614;10.226;2023-04-03T07:48:34;2.07;;;1.90;;
23800;SDS011;12081;48.614;10.226;2023-04-03T07:51:18;4.03;;;2.00;;
23800;SDS011;12081;48.614;10.226;2023-04-03T07:54:03;4.53;;;3.00;;
23800;SDS011;12081;48.614;10.226;2023-04-03T07:56:47;3.30;;;1.90;;
23800;SDS011;12081;48.614;10.226;2023-04-03T07:59:32;8.17;;;2.43;;
23800;SDS011;12081;48.614;10.226;2023-04-03T08:02:17;3.03;;;2.20;;
23800;SDS011;12081;48.614;10.226;2023-04-03T08:05:01;3.70;;;1.80;;
23800;SDS011;12081;48.614;10.226;2023-04-03T08:07:45;3.00;;;1.80;;
23800;SDS011;12081;48.614;10.226;2023-04-03T08:10:30;3.10;;;2.20;;
23800;SDS011;12081;48.614;10.226;2023-04-03T08:13:14;2.73;;;2.13;;
23800;SDS011;12081;48.614;10.226;2023-04-03T08:16:06;3.23;;;2.03;;
23800;SDS011;12081;48.614;10.226;2023-04-03T08:18:52;2.20;;;2.00;;
23800;SDS011;12081;48.614;10.226;2023-04-03T08:21:36;4.00;;;2.30;;
23800;SDS011;12081;48.614;10.226;2023-04-03T08:24:20;3.90;;;2.23;;
23800;SDS011;12081;48.614;10.226;2023-04-03T08:27:04;2.87;;;2.23;;
23800;SDS011;12081;48.614;10.226;2023-04-03T08:29:48;2.97;;;2.20;;
23800;SDS011;12081;48.614;10.226;2023-04-03T08:32:33;2.50;;;2.03;;
23800;SDS011;12081;48.614;10.226;2023-04-03T08:35:18;3.83;;;2.47;;
23800;SDS011;12081;48.614;10.226;2023-04-03T08:38:03;4.10;;;2.10;;
23800;SDS011;12081;48.614;10.226;2023-04-03T08:40:47;3.70;;;2.67;;
23800;SDS011;12081;48.614;10.226;2023-04-03T08:43:54;3.60;;;2.47;;
23800;SDS011;12081;48.614;10.226;2023-04-03T08:46:58;2.40;;;2.20;;
23800;SDS011;12081;48.614;10.226;2023-04-03T08:49:57;5.07;;;2.50;;
23800;SDS011;12081;48.614;10.226;2023-04-03T08:52:51;5.10;;;2.70;;
23800;SDS011;12081;48.614;10.226;2023-04-03T08:55:41;3.90;;;2.40;;
23800;SDS011;12081;48.614;10.226;2023-04-03T08:58:29;4.10;;;2.47;;
23800;SDS011;12081;48.614;10.226;2023-04-03T09:01:20;4.03;;;2.20;;
23800;SDS011;12081;48.614;10.226;2023-04-03T09:04:14;3.40;;;2.23;;
23800;SDS011;12081;48.614;10.226;2023-04-03T09:07:11;3.30;;;2.70;;
23800;SDS011;12081;48.614;10.226;2023-04-03T09:10:00;6.00;;;2.73;;
23800;SDS011;12081;48.614;10.226;2023-04-03T09:12:47;4.53;;;2.57;;
23800;SDS011;12081;48.614;10.226;2023-04-03T09:15:36;3.07;;;2.03;;
23800;SDS011;12081;48.614;10.226;2023-04-03T09:18:21;4.37;;;2.17;;
23800;SDS011;12081;48.614;10.226;2023-04-03T09:24:09;3.30;;;1.57;;
23800;SDS011;12081;48.614;10.226;2023-04-03T09:26:56;4.17;;;2.20;;
23800;SDS011;12081;48.614;10.226;2023-04-03T09:29:44;3.20;;;2.30;;
23800;SDS011;12081;48.614;10.226;2023-04-03T09:32:30;3.80;;;2.30;;
23800;SDS011;12081;48.614;10.226;2023-04-03T09:41:05;2.87;;;2.00;;
23800;SDS011;12081;48.614;10.226;2023-04-03T09:44:00;6.63;;;2.20;;
23800;SDS011;12081;48.614;10.226;2023-04-03T09:46:45;2.23;;;1.80;;
23800;SDS011;12081;48.614;10.226;2023-04-03T09:49:29;1.90;;;1.27;;
23800;SDS011;12081;48.614;10.226;2023-04-03T09:52:22;3.07;;;2.20;;
23800;SDS011;12081;48.614;10.226;2023-04-03T09:55:13;3.57;;;1.93;;
23800;SDS011;12081;48.614;10.226;2023-04-03T09:58:00;3.03;;;1.67;;
23800;SDS011;12081;48.614;10.226;2023-04-03T10:00:53;4.00;;;2.13;;
23800;SDS011;12081;48.614;10.226;2023-04-03T10:03:39;2.13;;;1.90;;
23800;SDS011;12081;48.614;10.226;2023-04-03T10:06:31;4.03;;;2.30;;
23800;SDS011;12081;48.614;10.226;2023-04-03T10:12:02;3.73;;;2.00;;
23800;SDS011;12081;48.614;10.226;2023-04-03T10:20:43;3.13;;;2.43;;
23800;SDS011;12081;48.614;10.226;2023-04-03T10:23:32;4.37;;;2.13;;
23800;SDS011;12081;48.614;10.226;2023-04-03T10:26:37;2.33;;;1.83;;
23800;SDS011;12081;48.614;10.226;2023-04-03T10:29:46;3.20;;;2.50;;
23800;SDS011;12081;48.614;10.226;2023-04-03T10:33:11;2.87;;;1.83;;
23800;SDS011;12081;48.614;10.226;2023-04-03T10:36:14;4.03;;;2.00;;
23800;SDS011;12081;48.614;10.226;2023-04-03T10:39:27;3.00;;;2.07;;
23800;SDS011;12081;48.614;10.226;2023-04-03T10:42:32;4.57;;;2.43;;
23800;SDS011;12081;48.614;10.226;2023-04-03T10:45:32;3.70;;;1.90;;
23800;SDS011;12081;48.614;10.226;2023-04-03T10:54:26;3.73;;;2.10;;
23800;SDS011;12081;48.614;10.226;2023-04-03T10:57:30;3.33;;;1.80;;
23800;SDS011;12081;48.614;10.226;2023-04-03T11:00:16;3.20;;;2.00;;
23800;SDS011;12081;48.614;10.226;2023-04-03T11:03:06;2.37;;;1.60;;
23800;SDS011;12081;48.614;10.226;2023-04-03T11:05:59;4.10;;;2.17;;
23800;SDS011;12081;48.614;10.226;2023-04-03T11:08:50;5.40;;;2.27;;
23800;SDS011;12081;48.614;10.226;2023-04-03T11:11:41;2.10;;;1.70;;
23800;SDS011;12081;48.614;10.226;2023-04-03T11:14:28;2.93;;;1.80;;
23800;SDS011;12081;48.614;10.226;2023-04-03T11:20:10;4.63;;;2.00;;
23800;SDS011;12081;48.614;10.226;2023-04-03T11:23:19;2.63;;;1.80;;
23800;SDS011;12081;48.614;10.226;2023-04-03T11:28:52;2.53;;;1.80;;
23800;SDS011;12081;48.614;10.226;2023-04-03T11:31:45;2.40;;;1.70;;
23800;SDS011;12081;48.614;10.226;2023-04-03T11:34:50;3.53;;;2.07;;
23800;SDS011;12081;48.614;10.226;2023-04-03T11:37:38;2.20;;;1.60;;
23800;SDS011;12081;48.614;10.226;2023-04-03T11:40:26;3.00;;;1.60;;
23800;SDS011;12081;48.614;10.226;2023-04-03T11:43:20;2.90;;;1.80;;
23800;SDS011;12081;48.614;10.226;2023-04-03T11:46:06;2.80;;;1.67;;
23800;SDS011;12081;48.614;10.226;2023-04-03T11:48:51;4.13;;;1.80;;
23800;SDS011;12081;48.614;10.226;2023-04-03T11:51:39;3.13;;;2.10;;
23800;SDS011;12081;48.614;10.226;2023-04-03T12:03:35;4.50;;;2.07;;
23800;SDS011;12081;48.614;10.226;2023-04-03T12:12:31;3.10;;;1.60;;
23800;SDS011;12081;48.614;10.226;2023-04-03T12:15:41;3.30;;;2.07;;
23800;SDS011;12081;48.614;10.226;2023-04-03T12:24:32;4.40;;;2.40;;
23800;SDS011;12081;48.614;10.226;2023-04-03T12:27:28;3.57;;;2.10;;
23800;SDS011;12081;48.614;10.226;2023-04-03T12:30:26;4.07;;;1.73;;
23800;SDS011;12081;48.614;10.226;2023-04-03T12:33:17;2.87;;;1.80;;
23800;SDS011;12081;48.614;10.226;2023-04-03T12:36:15;4.60;;;2.00;;
23800;SDS011;12081;48.614;10.226;2023-04-03T12:39:13;3.70;;;2.10;;
23800;SDS011;12081;48.614;10.226;2023-04-03T12:42:25;3.63;;;1.73;;
23800;SDS011;12081;48.614;10.226;2023-04-03T12:45:18;3.63;;;1.70;;
23800;SDS011;12081;48.614;10.226;2023-04-03T12:48:06;2.60;;;1.77;;
23800;SDS011;12081;48.614;10.226;2023-04-03T12:50:59;2.00;;;1.67;;
23800;SDS011;12081;48.614;10.226;2023-04-03T12:53:44;2.90;;;1.60;;
23800;SDS011;12081;48.614;10.226;2023-04-03T12:56:30;2.47;;;1.67;;
23800;SDS011;12081;48.614;10.226;2023-04-03T12:59:22;3.37;;;1.57;;
23800;SDS011;12081;48.614;10.226;2023-04-03T13:02:15;3.30;;;1.70;;
23800;SDS011;12081;48.614;10.226;2023-04-03T13:05:08;4.77;;;1.40;;
23800;SDS011;12081;48.614;10.226;2023-04-03T13:07:58;2.70;;;1.90;;
23800;SDS011;12081;48.614;10.226;2023-04-03T13:10:55;2.37;;;1.50;;
23800;SDS011;12081;48.614;10.226;2023-04-03T13:13:54;2.20;;;1.80;;
23800;SDS011;12081;48.614;10.226;2023-04-03T13:16:52;2.93;;;1.80;;
23800;SDS011;12081;48.614;10.226;2023-04-03T13:20:08;3.30;;;1.80;;
23800;SDS011;12081;48.614;10.226;2023-04-03T13:26:01;1.80;;;1.33;;
23800;SDS011;12081;48.614;10.226;2023-04-03T13:28:46;1.63;;;1.10;;
23800;SDS011;12081;48.614;10.226;2023-04-03T13:31:33;2.93;;;1.63;;
23800;SDS011;12081;48.614;10.226;2023-04-03T13:34:19;2.23;;;1.47;;
23800;SDS011;12081;48.614;10.226;2023-04-03T13:37:05;6.57;;;2.07;;
23800;SDS011;12081;48.614;10.226;2023-04-03T13:40:12;4.97;;;1.70;;
23800;SDS011;12081;48.614;10.226;2023-04-03T13:43:00;3.10;;;1.83;;
23800;SDS011;12081;48.614;10.226;2023-04-03T13:46:01;1.57;;;1.40;;
23800;SDS011;12081;48.614;10.226;2023-04-03T13:48:53;3.20;;;1.60;;
23800;SDS011;12081;48.614;10.226;2023-04-03T13:51:39;2.80;;;1.60;;
23800;SDS011;12081;48.614;10.226;2023-04-03T13:54:24;2.50;;;1.73;;
23800;SDS011;12081;48.614;10.226;2023-04-03T13:57:15;2.67;;;1.53;;
23800;SDS011;12081;48.614;10.226;2023-04-03T13:59:59;2.27;;;1.40;;
23800;SDS011;12081;48.614;10.226;2023-04-03T14:03:02;1.77;;;1.20;;
23800;SDS011;12081;48.614;10.226;2023-04-03T14:05:54;4.63;;;2.10;;
23800;SDS011;12081;48.614;10.226;2023-04-03T14:08:39;5.23;;;2.33;;
23800;SDS011;12081;48.614;10.226;2023-04-03T14:11:26;5.23;;;1.87;;
23800;SDS011;12081;48.614;10.226;2023-04-03T14:14:14;3.80;;;1.63;;
23800;SDS011;12081;48.614;10.226;2023-04-03T14:17:03;2.93;;;1.50;;
23800;SDS011;12081;48.614;10.226;2023-04-03T14:19:57;2.73;;;1.53;;
23800;SDS011;12081;48.614;10.226;2023-04-03T14:22:41;2.77;;;1.30;;
23800;SDS011;12081;48.614;10.226;2023-04-03T14:25:26;3.37;;;1.43;;
23800;SDS011;12081;48.614;10.226;2023-04-03T14:28:15;3.27;;;1.33;;
23800;SDS011;12081;48.614;10.226;2023-04-03T14:31:01;2.33;;;1.37;;
23800;SDS011;12081;48.614;10.226;2023-04-03T14:33:46;3.47;;;1.50;;
23800;SDS011;12081;48.614;10.226;2023-04-03T14:36:30;3.40;;;1.60;;
23800;SDS011;12081;48.614;10.226;2023-04-03T14:39:17;1.93;;;1.33;;
23800;SDS011;12081;48.614;10.226;2023-04-03T14:42:02;2.20;;;1.30;;
23800;SDS011;12081;48.614;10.226;2023-04-03T14:44:46;2.57;;;1.30;;
23800;SDS011;12081;48.614;10.226;2023-04-03T14:47:30;2.80;;;1.30;;
23800;SDS011;12081;48.614;10.226;2023-04-03T14:50:20;3.07;;;1.67;;
23800;SDS011;12081;48.614;10.226;2023-04-03T14:53:05;3.60;;;1.57;;
23800;SDS011;12081;48.614;10.226;2023-04-03T14:55:51;2.97;;;1.53;;
23800;SDS011;12081;48.614;10.226;2023-04-03T14:58:36;4.37;;;1.53;;
23800;SDS011;12081;48.614;10.226;2023-04-03T15:01:20;3.03;;;1.90;;
23800;SDS011;12081;48.614;10.226;2023-04-03T15:04:18;3.87;;;2.10;;
23800;SDS011;12081;48.614;10.226;2023-04-03T15:07:03;2.43;;;1.40;;
23800;SDS011;12081;48.614;10.226;2023-04-03T15:09:48;3.60;;;1.80;;
23800;SDS011;12081;48.614;10.226;2023-04-03T15:12:33;2.40;;;1.53;;
23800;SDS011;12081;48.614;10.226;2023-04-03T15:15:18;9.03;;;1.47;;
23800;SDS011;12081;48.614;10.226;2023-04-03T15:18:04;3.93;;;1.77;;
23800;SDS011;12081;48.614;10.226;2023-04-03T15:20:54;3.00;;;1.40;;
23800;SDS011;12081;48.614;10.226;2023-04-03T15:23:38;5.50;;;1.83;;
23800;SDS011;12081;48.614;10.226;2023-04-03T15:26:23;1.53;;;1.20;;
23800;SDS011;12081;48.614;10.226;2023-04-03T15:29:10;2.13;;;1.17;;
23800;SDS011;12081;48.614;10.226;2023-04-03T15:31:54;2.53;;;1.50;;
23800;SDS011;12081;48.614;10.226;2023-04-03T15:34:39;3.40;;;1.50;;
23800;SDS011;12081;48.614;10.226;2023-04-03T15:37:24;5.50;;;1.53;;
23800;SDS011;12081;48.614;10.226;2023-04-03T15:40:08;1.43;;;1.03;;
23800;SDS011;12081;48.614;10.226;2023-04-03T15:42:53;1.80;;;1.23;;
23800;SDS011;12081;48.614;10.226;2023-04-03T15:45:37;2.30;;;1.40;;
23800;SDS011;12081;48.614;10.226;2023-04-03T15:48:21;3.03;;;1.80;;
23800;SDS011;12081;48.614;10.226;2023-04-03T15:51:05;4.57;;;1.83;;
23800;SDS011;12081;48.614;10.226;2023-04-03T15:53:50;3.37;;;1.40;;
23800;SDS011;12081;48.614;10.226;2023-04-03T15:56:34;5.00;;;1.83;;
23800;SDS011;12081;48.614;10.226;2023-04-03T15:59:18;3.00;;;1.73;;
23800;SDS011;12081;48.614;10.226;2023-04-03T16:02:03;3.77;;;1.80;;
23800;SDS011;12081;48.614;10.226;2023-04-03T16:04:51;3.60;;;1.90;;
23800;SDS011;12081;48.614;10.226;2023-04-03T16:07:38;5.17;;;2.17;;
23800;SDS011;12081;48.614;10.226;2023-04-03T16:10:23;3.13;;;1.80;;
23800;SDS011;12081;48.614;10.226;2023-04-03T16:13:08;3.57;;;2.00;;
23800;SDS011;12081;48.614;10.226;2023-04-03T16:15:52;4.00;;;2.10;;
23800;SDS011;12081;48.614;10.226;2023-04-03T16:18:37;3.00;;;1.80;;
23800;SDS011;12081;48.614;10.226;2023-04-03T16:21:21;3.63;;;2.20;;
23800;SDS011;12081;48.614;10.226;2023-04-03T16:24:06;4.93;;;2.33;;
23800;SDS011;12081;48.614;10.226;2023-04-03T16:26:50;3.17;;;2.23;;
23800;SDS011;12081;48.614;10.226;2023-04-03T16:29:34;4.03;;;1.87;;
23800;SDS011;12081;48.614;10.226;2023-04-03T16:32:18;3.70;;;1.63;;
23800;SDS011;12081;48.614;10.226;2023-04-03T16:35:03;4.37;;;1.67;;
23800;SDS011;12081;48.614;10.226;2023-04-03T16:37:47;13.90;;;8.43;;
23800;SDS011;12081;48.614;10.226;2023-04-03T16:40:32;5.17;;;2.40;;
23800;SDS011;12081;48.614;10.226;2023-04-03T16:43:17;3.87;;;2.73;;
23800;SDS011;12081;48.614;10.226;2023-04-03T16:46:02;5.70;;;3.53;;
23800;SDS011;12081;48.614;10.226;2023-04-03T16:48:46;7.90;;;3.63;;
23800;SDS011;12081;48.614;10.226;2023-04-03T16:51:30;6.37;;;2.90;;
23800;SDS011;12081;48.614;10.226;2023-04-03T16:54:15;11.43;;;4.80;;
23800;SDS011;12081;48.614;10.226;2023-04-03T16:56:59;5.13;;;2.87;;
23800;SDS011;12081;48.614;10.226;2023-04-03T16:59:43;10.50;;;4.90;;
23800;SDS011;12081;48.614;10.226;2023-04-03T17:02:27;5.17;;;3.07;;
23800;SDS011;12081;48.614;10.226;2023-04-03T17:05:13;3.93;;;1.97;;
23800;SDS011;12081;48.614;10.226;2023-04-03T17:07:57;4.47;;;2.17;;
23800;SDS011;12081;48.614;10.226;2023-04-03T17:10:41;3.67;;;2.13;;
23800;SDS011;12081;48.614;10.226;2023-04-03T17:13:25;1.60;;;1.50;;
23800;SDS011;12081;48.614;10.226;2023-04-03T17:16:15;6.63;;;3.03;;
23800;SDS011;12081;48.614;10.226;2023-04-03T17:18:59;4.67;;;2.00;;
23800;SDS011;12081;48.614;10.226;2023-04-03T17:21:44;3.97;;;2.47;;
23800;SDS011;12081;48.614;10.226;2023-04-03T17:24:29;4.33;;;2.40;;
23800;SDS011;12081;48.614;10.226;2023-04-03T17:27:13;5.73;;;3.77;;
23800;SDS011;12081;48.614;10.226;2023-04-03T17:29:57;7.40;;;4.13;;
23800;SDS011;12081;48.614;10.226;2023-04-03T17:32:42;8.50;;;4.43;;
23800;SDS011;12081;48.614;10.226;2023-04-03T17:35:26;9.63;;;4.77;;
23800;SDS011;12081;48.614;10.226;2023-04-03T17:38:10;12.33;;;5.70;;
23800;SDS011;12081;48.614;10.226;2023-04-03T17:40:58;10.23;;;4.73;;
23800;SDS011;12081;48.614;10.226;2023-04-03T17:43:43;8.87;;;4.83;;
23800;SDS011;12081;48.614;10.226;2023-04-03T17:46:27;9.53;;;4.70;;
23800;SDS011;12081;48.614;10.226;2023-04-03T17:49:12;7.57;;;4.50;;
23800;SDS011;12081;48.614;10.226;2023-04-03T17:51:57;5.53;;;3.23;;
23800;SDS011;12081;48.614;10.226;2023-04-03T17:54:42;6.07;;;2.20;;
23800;SDS011;12081;48.614;10.226;2023-04-03T17:57:26;3.63;;;2.53;;
23800;SDS011;12081;48.614;10.226;2023-04-03T18:00:10;2.50;;;1.83;;
23800;SDS011;12081;48.614;10.226;2023-04-03T18:02:55;1.70;;;1.57;;
23800;SDS011;12081;48.614;10.226;2023-04-03T18:05:39;2.10;;;1.57;;
23800;SDS011;12081;48.614;10.226;2023-04-03T18:08:23;2.43;;;1.90;;
23800;SDS011;12081;48.614;10.226;2023-04-03T18:11:08;4.17;;;2.07;;
23800;SDS011;12081;48.614;10.226;2023-04-03T18:13:52;4.53;;;2.50;;
23800;SDS011;12081;48.614;10.226;2023-04-03T18:16:40;2.90;;;2.17;;
23800;SDS011;12081;48.614;10.226;2023-04-03T18:19:25;5.40;;;2.20;;
23800;SDS011;12081;48.614;10.226;2023-04-03T18:22:11;3.90;;;2.30;;
23800;SDS011;12081;48.614;10.226;2023-04-03T18:24:59;3.47;;;1.83;;
23800;SDS011;12081;48.614;10.226;2023-04-03T18:27:43;2.80;;;2.43;;
23800;SDS011;12081;48.614;10.226;2023-04-03T18:30:29;4.97;;;2.33;;
23800;SDS011;12081;48.614;10.226;2023-04-03T18:33:13;5.73;;;2.83;;
23800;SDS011;12081;48.614;10.226;2023-04-03T18:35:57;4.10;;;1.80;;
23800;SDS011;12081;48.614;10.226;2023-04-03T18:38:41;4.37;;;2.40;;
23800;SDS011;12081;48.614;10.226;2023-04-03T18:41:32;4.70;;;2.33;;
23800;SDS011;12081;48.614;10.226;2023-04-03T18:44:20;2.57;;;1.40;;
23800;SDS011;12081;48.614;10.226;2023-04-03T18:47:07;2.80;;;1.90;;
23800;SDS011;12081;48.614;10.226;2023-04-03T18:49:51;4.87;;;1.70;;
23800;SDS011;12081;48.614;10.226;2023-04-03T18:52:35;3.87;;;1.80;;
23800;SDS011;12081;48.614;10.226;2023-04-03T18:55:19;3.47;;;2.27;;
23800;SDS011;12081;48.614;10.226;2023-04-03T18:58:03;3.57;;;2.00;;
23800;SDS011;12081;48.614;10.226;2023-04-03T19:00:47;2.47;;;2.13;;
23800;SDS011;12081;48.614;10.226;2023-04-03T19:03:32;2.37;;;1.60;;
23800;SDS011;12081;48.614;10.226;2023-04-03T19:06:18;4.63;;;2.20;;
23800;SDS011;12081;48.614;10.226;2023-04-03T19:09:04;3.20;;;1.80;;
23800;SDS011;12081;48.614;10.226;2023-04-03T19:11:52;2.03;;;1.70;;